sensor_id;sensor_type;location;lat;lon;timestamp;P1;durP1;ratioP1;P2;durP2;ratioP2
49464;SDS011;35358;49.342;8.802;2022-11-20T00:01:18;13.25;;;9.38;;
49464;SDS011;35358;49.342;8.802;2022-11-20T00:03:45;15.13;;;9.75;;
49464;SDS011;35358;49.342;8.802;2022-11-20T00:06:15;13.90;;;9.38;;
49464;SDS011;35358;49.342;8.802;2022-11-20T00:08:42;13.65;;;9.63;;
49464;SDS011;35358;49.342;8.802;2022-11-20T00:11:10;15.88;;;10.48;;
49464;SDS011;35358;49.342;8.802;2022-11-20T00:13:44;13.32;;;9.70;;
49464;SDS011;35358;49.342;8.802;2022-11-20T00:16:12;16.25;;;9.38;;
49464;SDS011;35358;49.342;8.802;2022-11-20T00:18:41;15.15;;;9.43;;
49464;SDS011;35358;49.342;8.802;2022-11-20T00:21:11;13.77;;;9.00;;
49464;SDS011;35358;49.342;8.802;2022-11-20T00:23:38;13.88;;;9.57;;
49464;SDS011;35358;49.342;8.802;2022-11-20T00:26:07;14.65;;;9.70;;
49464;SDS011;35358;49.342;8.802;2022-11-20T00:28:34;16.00;;;9.45;;
49464;SDS011;35358;49.342;8.802;2022-11-20T00:31:21;14.30;;;9.75;;
49464;SDS011;35358;49.342;8.802;2022-11-20T00:33:48;13.77;;;9.25;;
49464;SDS011;35358;49.342;8.802;2022-11-20T00:36:15;14.05;;;9.90;;
49464;SDS011;35358;49.342;8.802;2022-11-20T00:38:46;15.48;;;9.52;;
49464;SDS011;35358;49.342;8.802;2022-11-20T00:41:15;13.80;;;9.30;;
49464;SDS011;35358;49.342;8.802;2022-11-20T00:43:41;14.52;;;9.23;;
49464;SDS011;35358;49.342;8.802;2022-11-20T00:46:10;14.38;;;9.93;;
49464;SDS011;35358;49.342;8.802;2022-11-20T00:48:39;16.00;;;10.55;;
49464;SDS011;35358;49.342;8.802;2022-11-20T00:51:07;12.32;;;9.02;;
49464;SDS011;35358;49.342;8.802;2022-11-20T00:53:32;14.43;;;9.20;;
49464;SDS011;35358;49.342;8.802;2022-11-20T00:56:02;13.45;;;9.50;;
49464;SDS011;35358;49.342;8.802;2022-11-20T00:58:33;14.00;;;9.52;;
49464;SDS011;35358;49.342;8.802;2022-11-20T01:03:36;13.55;;;9.38;;
49464;SDS011;35358;49.342;8.802;2022-11-20T01:06:16;14.52;;;9.07;;
49464;SDS011;35358;49.342;8.802;2022-11-20T01:08:47;14.95;;;9.77;;
49464;SDS011;35358;49.342;8.802;2022-11-20T01:11:20;15.10;;;10.00;;
49464;SDS011;35358;49.342;8.802;2022-11-20T01:13:49;15.38;;;10.00;;
49464;SDS011;35358;49.342;8.802;2022-11-20T01:16:20;14.98;;;9.60;;
49464;SDS011;35358;49.342;8.802;2022-11-20T01:18:48;16.02;;;10.18;;
49464;SDS011;35358;49.342;8.802;2022-11-20T01:21:16;15.48;;;10.38;;
49464;SDS011;35358;49.342;8.802;2022-11-20T01:23:44;13.73;;;9.15;;
49464;SDS011;35358;49.342;8.802;2022-11-20T01:26:12;13.40;;;9.13;;
49464;SDS011;35358;49.342;8.802;2022-11-20T01:28:42;17.08;;;9.45;;
49464;SDS011;35358;49.342;8.802;2022-11-20T01:31:15;14.57;;;9.15;;
49464;SDS011;35358;49.342;8.802;2022-11-20T01:33:50;18.63;;;9.95;;
49464;SDS011;35358;49.342;8.802;2022-11-20T01:36:20;14.27;;;9.77;;
49464;SDS011;35358;49.342;8.802;2022-11-20T01:41:22;16.17;;;9.43;;
49464;SDS011;35358;49.342;8.802;2022-11-20T01:44:08;14.82;;;9.98;;
49464;SDS011;35358;49.342;8.802;2022-11-20T01:46:40;16.38;;;10.73;;
49464;SDS011;35358;49.342;8.802;2022-11-20T01:49:21;16.85;;;10.88;;
49464;SDS011;35358;49.342;8.802;2022-11-20T01:52:06;14.50;;;9.93;;
49464;SDS011;35358;49.342;8.802;2022-11-20T01:55:04;14.75;;;9.73;;
49464;SDS011;35358;49.342;8.802;2022-11-20T01:57:29;15.73;;;10.48;;
49464;SDS011;35358;49.342;8.802;2022-11-20T02:00:10;15.30;;;10.40;;
49464;SDS011;35358;49.342;8.802;2022-11-20T02:02:38;14.43;;;9.45;;
49464;SDS011;35358;49.342;8.802;2022-11-20T02:05:31;15.75;;;10.52;;
49464;SDS011;35358;49.342;8.802;2022-11-20T02:08:03;16.25;;;10.50;;
49464;SDS011;35358;49.342;8.802;2022-11-20T02:10:30;14.77;;;10.48;;
49464;SDS011;35358;49.342;8.802;2022-11-20T02:12:57;14.35;;;9.80;;
49464;SDS011;35358;49.342;8.802;2022-11-20T02:15:44;16.38;;;10.07;;
49464;SDS011;35358;49.342;8.802;2022-11-20T02:18:13;15.75;;;10.65;;
49464;SDS011;35358;49.342;8.802;2022-11-20T02:20:44;15.50;;;10.38;;
49464;SDS011;35358;49.342;8.802;2022-11-20T02:23:12;16.40;;;10.35;;
49464;SDS011;35358;49.342;8.802;2022-11-20T02:25:49;18.40;;;10.60;;
49464;SDS011;35358;49.342;8.802;2022-11-20T02:28:16;15.27;;;10.15;;
49464;SDS011;35358;49.342;8.802;2022-11-20T02:30:43;16.35;;;10.80;;
49464;SDS011;35358;49.342;8.802;2022-11-20T02:33:08;15.15;;;10.18;;
49464;SDS011;35358;49.342;8.802;2022-11-20T02:35:40;16.55;;;10.45;;
49464;SDS011;35358;49.342;8.802;2022-11-20T02:38:10;17.75;;;10.48;;
49464;SDS011;35358;49.342;8.802;2022-11-20T02:40:36;17.27;;;10.60;;
49464;SDS011;35358;49.342;8.802;2022-11-20T02:43:04;20.35;;;11.35;;
49464;SDS011;35358;49.342;8.802;2022-11-20T02:45:32;18.50;;;10.32;;
49464;SDS011;35358;49.342;8.802;2022-11-20T02:47:58;16.80;;;10.55;;
49464;SDS011;35358;49.342;8.802;2022-11-20T02:50:24;16.27;;;10.70;;
49464;SDS011;35358;49.342;8.802;2022-11-20T02:52:51;19.02;;;11.15;;
49464;SDS011;35358;49.342;8.802;2022-11-20T02:55:16;17.17;;;10.90;;
49464;SDS011;35358;49.342;8.802;2022-11-20T02:57:42;18.45;;;11.77;;
49464;SDS011;35358;49.342;8.802;2022-11-20T03:00:12;16.08;;;10.55;;
49464;SDS011;35358;49.342;8.802;2022-11-20T03:02:38;18.08;;;11.38;;
49464;SDS011;35358;49.342;8.802;2022-11-20T03:05:04;18.65;;;11.73;;
49464;SDS011;35358;49.342;8.802;2022-11-20T03:07:31;23.40;;;11.45;;
49464;SDS011;35358;49.342;8.802;2022-11-20T03:09:57;18.50;;;11.38;;
49464;SDS011;35358;49.342;8.802;2022-11-20T03:12:22;22.60;;;12.32;;
49464;SDS011;35358;49.342;8.802;2022-11-20T03:14:50;21.45;;;12.35;;
49464;SDS011;35358;49.342;8.802;2022-11-20T03:17:20;21.25;;;11.55;;
49464;SDS011;35358;49.342;8.802;2022-11-20T03:19:50;18.40;;;11.65;;
49464;SDS011;35358;49.342;8.802;2022-11-20T03:22:18;19.15;;;12.13;;
49464;SDS011;35358;49.342;8.802;2022-11-20T03:24:43;20.25;;;12.18;;
49464;SDS011;35358;49.342;8.802;2022-11-20T03:27:11;21.70;;;11.95;;
49464;SDS011;35358;49.342;8.802;2022-11-20T03:29:37;19.70;;;11.63;;
49464;SDS011;35358;49.342;8.802;2022-11-20T03:32:03;23.50;;;12.15;;
49464;SDS011;35358;49.342;8.802;2022-11-20T03:34:28;17.45;;;11.18;;
49464;SDS011;35358;49.342;8.802;2022-11-20T03:36:54;19.05;;;11.32;;
49464;SDS011;35358;49.342;8.802;2022-11-20T03:39:19;24.70;;;12.35;;
49464;SDS011;35358;49.342;8.802;2022-11-20T03:41:45;23.48;;;12.45;;
49464;SDS011;35358;49.342;8.802;2022-11-20T03:44:11;20.60;;;12.18;;
49464;SDS011;35358;49.342;8.802;2022-11-20T03:46:39;17.85;;;10.98;;
49464;SDS011;35358;49.342;8.802;2022-11-20T03:49:05;20.13;;;11.57;;
49464;SDS011;35358;49.342;8.802;2022-11-20T03:51:31;20.58;;;12.63;;
49464;SDS011;35358;49.342;8.802;2022-11-20T03:53:59;17.20;;;9.93;;
49464;SDS011;35358;49.342;8.802;2022-11-20T03:56:29;19.88;;;11.27;;
49464;SDS011;35358;49.342;8.802;2022-11-20T03:59:00;20.15;;;11.48;;
49464;SDS011;35358;49.342;8.802;2022-11-20T04:01:32;19.90;;;11.68;;
49464;SDS011;35358;49.342;8.802;2022-11-20T04:04:01;18.98;;;10.20;;
49464;SDS011;35358;49.342;8.802;2022-11-20T04:06:35;23.27;;;12.60;;
49464;SDS011;35358;49.342;8.802;2022-11-20T04:09:05;19.92;;;11.90;;
49464;SDS011;35358;49.342;8.802;2022-11-20T04:11:34;19.85;;;11.05;;
49464;SDS011;35358;49.342;8.802;2022-11-20T04:14:11;21.42;;;12.23;;
49464;SDS011;35358;49.342;8.802;2022-11-20T04:16:39;24.33;;;13.13;;
49464;SDS011;35358;49.342;8.802;2022-11-20T04:19:05;20.75;;;11.60;;
49464;SDS011;35358;49.342;8.802;2022-11-20T04:21:33;21.08;;;11.50;;
49464;SDS011;35358;49.342;8.802;2022-11-20T04:24:03;20.60;;;11.07;;
49464;SDS011;35358;49.342;8.802;2022-11-20T04:26:33;17.80;;;10.50;;
49464;SDS011;35358;49.342;8.802;2022-11-20T04:28:58;18.67;;;10.50;;
49464;SDS011;35358;49.342;8.802;2022-11-20T04:31:27;20.88;;;10.27;;
49464;SDS011;35358;49.342;8.802;2022-11-20T04:33:54;18.10;;;10.15;;
49464;SDS011;35358;49.342;8.802;2022-11-20T04:36:24;16.42;;;10.02;;
49464;SDS011;35358;49.342;8.802;2022-11-20T04:38:54;16.55;;;9.45;;
49464;SDS011;35358;49.342;8.802;2022-11-20T04:41:21;13.52;;;8.95;;
49464;SDS011;35358;49.342;8.802;2022-11-20T04:43:48;12.07;;;7.47;;
49464;SDS011;35358;49.342;8.802;2022-11-20T04:46:15;14.82;;;8.85;;
49464;SDS011;35358;49.342;8.802;2022-11-20T04:48:42;11.13;;;6.97;;
49464;SDS011;35358;49.342;8.802;2022-11-20T04:51:08;7.47;;;4.85;;
49464;SDS011;35358;49.342;8.802;2022-11-20T04:53:36;13.45;;;8.75;;
49464;SDS011;35358;49.342;8.802;2022-11-20T04:56:02;10.38;;;6.28;;
49464;SDS011;35358;49.342;8.802;2022-11-20T04:58:33;9.68;;;5.93;;
49464;SDS011;35358;49.342;8.802;2022-11-20T05:01:02;11.38;;;6.43;;
49464;SDS011;35358;49.342;8.802;2022-11-20T05:03:33;10.02;;;6.22;;
49464;SDS011;35358;49.342;8.802;2022-11-20T05:06:04;7.88;;;5.10;;
49464;SDS011;35358;49.342;8.802;2022-11-20T05:08:31;9.02;;;5.47;;
49464;SDS011;35358;49.342;8.802;2022-11-20T05:11:05;7.13;;;4.53;;
49464;SDS011;35358;49.342;8.802;2022-11-20T05:13:32;8.57;;;5.60;;
49464;SDS011;35358;49.342;8.802;2022-11-20T05:16:02;9.23;;;6.28;;
49464;SDS011;35358;49.342;8.802;2022-11-20T05:18:28;10.45;;;6.97;;
49464;SDS011;35358;49.342;8.802;2022-11-20T05:20:57;13.52;;;8.32;;
49464;SDS011;35358;49.342;8.802;2022-11-20T05:23:25;11.60;;;7.87;;
49464;SDS011;35358;49.342;8.802;2022-11-20T05:25:54;11.03;;;7.57;;
49464;SDS011;35358;49.342;8.802;2022-11-20T05:28:21;10.70;;;7.43;;
49464;SDS011;35358;49.342;8.802;2022-11-20T05:30:47;12.27;;;7.65;;
49464;SDS011;35358;49.342;8.802;2022-11-20T05:33:13;9.35;;;6.40;;
49464;SDS011;35358;49.342;8.802;2022-11-20T05:35:39;11.65;;;6.70;;
49464;SDS011;35358;49.342;8.802;2022-11-20T05:38:04;12.18;;;7.47;;
49464;SDS011;35358;49.342;8.802;2022-11-20T05:40:30;12.35;;;8.07;;
49464;SDS011;35358;49.342;8.802;2022-11-20T05:42:55;11.35;;;7.47;;
49464;SDS011;35358;49.342;8.802;2022-11-20T05:45:26;13.25;;;7.65;;
49464;SDS011;35358;49.342;8.802;2022-11-20T05:47:52;12.60;;;8.60;;
49464;SDS011;35358;49.342;8.802;2022-11-20T05:50:18;11.95;;;7.90;;
49464;SDS011;35358;49.342;8.802;2022-11-20T05:52:46;13.05;;;8.23;;
49464;SDS011;35358;49.342;8.802;2022-11-20T05:55:14;12.68;;;8.68;;
49464;SDS011;35358;49.342;8.802;2022-11-20T05:57:42;11.35;;;8.25;;
49464;SDS011;35358;49.342;8.802;2022-11-20T06:00:07;13.82;;;9.02;;
49464;SDS011;35358;49.342;8.802;2022-11-20T06:02:36;16.35;;;9.27;;
49464;SDS011;35358;49.342;8.802;2022-11-20T06:05:02;12.35;;;8.88;;
49464;SDS011;35358;49.342;8.802;2022-11-20T06:07:28;15.48;;;9.77;;
49464;SDS011;35358;49.342;8.802;2022-11-20T06:09:53;16.55;;;10.15;;
49464;SDS011;35358;49.342;8.802;2022-11-20T06:12:21;13.55;;;9.05;;
49464;SDS011;35358;49.342;8.802;2022-11-20T06:14:46;17.05;;;10.45;;
49464;SDS011;35358;49.342;8.802;2022-11-20T06:17:12;14.38;;;10.07;;
49464;SDS011;35358;49.342;8.802;2022-11-20T06:19:38;14.45;;;9.80;;
49464;SDS011;35358;49.342;8.802;2022-11-20T06:22:04;14.93;;;9.57;;
49464;SDS011;35358;49.342;8.802;2022-11-20T06:24:29;15.65;;;9.90;;
49464;SDS011;35358;49.342;8.802;2022-11-20T06:26:55;14.52;;;9.70;;
49464;SDS011;35358;49.342;8.802;2022-11-20T06:29:22;14.15;;;9.57;;
49464;SDS011;35358;49.342;8.802;2022-11-20T06:31:48;15.57;;;10.52;;
49464;SDS011;35358;49.342;8.802;2022-11-20T06:34:13;17.60;;;10.73;;
49464;SDS011;35358;49.342;8.802;2022-11-20T06:36:39;14.95;;;9.65;;
49464;SDS011;35358;49.342;8.802;2022-11-20T06:39:05;15.88;;;9.88;;
49464;SDS011;35358;49.342;8.802;2022-11-20T06:41:33;17.02;;;10.52;;
49464;SDS011;35358;49.342;8.802;2022-11-20T06:44:00;13.90;;;9.93;;
49464;SDS011;35358;49.342;8.802;2022-11-20T06:46:28;14.18;;;9.07;;
49464;SDS011;35358;49.342;8.802;2022-11-20T06:48:54;14.13;;;9.30;;
49464;SDS011;35358;49.342;8.802;2022-11-20T06:51:19;13.77;;;9.65;;
49464;SDS011;35358;49.342;8.802;2022-11-20T06:53:46;13.32;;;8.70;;
49464;SDS011;35358;49.342;8.802;2022-11-20T06:56:12;16.67;;;10.00;;
49464;SDS011;35358;49.342;8.802;2022-11-20T06:58:38;14.25;;;8.98;;
49464;SDS011;35358;49.342;8.802;2022-11-20T07:01:04;18.10;;;10.48;;
49464;SDS011;35358;49.342;8.802;2022-11-20T07:03:32;14.15;;;8.77;;
49464;SDS011;35358;49.342;8.802;2022-11-20T07:05:58;13.50;;;8.63;;
49464;SDS011;35358;49.342;8.802;2022-11-20T07:08:24;13.10;;;8.55;;
49464;SDS011;35358;49.342;8.802;2022-11-20T07:10:50;13.25;;;8.27;;
49464;SDS011;35358;49.342;8.802;2022-11-20T07:13:18;13.65;;;8.07;;
49464;SDS011;35358;49.342;8.802;2022-11-20T07:15:44;15.52;;;9.25;;
49464;SDS011;35358;49.342;8.802;2022-11-20T07:18:09;12.43;;;8.13;;
49464;SDS011;35358;49.342;8.802;2022-11-20T07:20:35;14.57;;;8.95;;
49464;SDS011;35358;49.342;8.802;2022-11-20T07:23:03;11.43;;;7.70;;
49464;SDS011;35358;49.342;8.802;2022-11-20T07:25:30;11.98;;;7.53;;
49464;SDS011;35358;49.342;8.802;2022-11-20T07:27:57;11.07;;;7.40;;
49464;SDS011;35358;49.342;8.802;2022-11-20T07:30:23;11.40;;;7.65;;
49464;SDS011;35358;49.342;8.802;2022-11-20T07:32:53;11.63;;;7.80;;
49464;SDS011;35358;49.342;8.802;2022-11-20T07:35:21;9.73;;;7.18;;
49464;SDS011;35358;49.342;8.802;2022-11-20T07:37:50;12.43;;;7.68;;
49464;SDS011;35358;49.342;8.802;2022-11-20T07:40:16;10.30;;;6.95;;
49464;SDS011;35358;49.342;8.802;2022-11-20T07:42:51;11.65;;;6.65;;
49464;SDS011;35358;49.342;8.802;2022-11-20T07:45:18;10.45;;;7.53;;
49464;SDS011;35358;49.342;8.802;2022-11-20T07:47:44;12.73;;;7.47;;
49464;SDS011;35358;49.342;8.802;2022-11-20T07:50:13;10.15;;;6.53;;
49464;SDS011;35358;49.342;8.802;2022-11-20T07:52:39;12.52;;;7.38;;
49464;SDS011;35358;49.342;8.802;2022-11-20T07:55:05;13.02;;;7.60;;
49464;SDS011;35358;49.342;8.802;2022-11-20T07:57:34;12.20;;;7.60;;
49464;SDS011;35358;49.342;8.802;2022-11-20T08:00:00;10.43;;;6.70;;
49464;SDS011;35358;49.342;8.802;2022-11-20T08:02:25;10.02;;;6.63;;
49464;SDS011;35358;49.342;8.802;2022-11-20T08:04:51;8.82;;;5.82;;
49464;SDS011;35358;49.342;8.802;2022-11-20T08:07:17;10.15;;;6.50;;
49464;SDS011;35358;49.342;8.802;2022-11-20T08:09:42;13.32;;;7.75;;
49464;SDS011;35358;49.342;8.802;2022-11-20T08:12:08;15.77;;;7.55;;
49464;SDS011;35358;49.342;8.802;2022-11-20T08:15:00;10.52;;;7.03;;
49464;SDS011;35358;49.342;8.802;2022-11-20T08:17:28;9.70;;;7.15;;
49464;SDS011;35358;49.342;8.802;2022-11-20T08:19:59;9.52;;;5.70;;
49464;SDS011;35358;49.342;8.802;2022-11-20T08:22:24;7.45;;;4.38;;
49464;SDS011;35358;49.342;8.802;2022-11-20T08:24:54;7.22;;;4.30;;
49464;SDS011;35358;49.342;8.802;2022-11-20T08:27:22;6.90;;;4.55;;
49464;SDS011;35358;49.342;8.802;2022-11-20T08:29:48;4.68;;;3.67;;
49464;SDS011;35358;49.342;8.802;2022-11-20T08:32:13;8.25;;;3.97;;
49464;SDS011;35358;49.342;8.802;2022-11-20T08:34:39;25.00;;;6.35;;
49464;SDS011;35358;49.342;8.802;2022-11-20T08:37:06;6.53;;;3.85;;
49464;SDS011;35358;49.342;8.802;2022-11-20T08:39:32;4.43;;;3.63;;
49464;SDS011;35358;49.342;8.802;2022-11-20T08:41:58;4.25;;;3.42;;
49464;SDS011;35358;49.342;8.802;2022-11-20T08:44:26;5.22;;;3.40;;
49464;SDS011;35358;49.342;8.802;2022-11-20T08:46:53;5.97;;;3.85;;
49464;SDS011;35358;49.342;8.802;2022-11-20T08:49:19;4.15;;;3.00;;
49464;SDS011;35358;49.342;8.802;2022-11-20T08:51:45;4.80;;;2.90;;
49464;SDS011;35358;49.342;8.802;2022-11-20T08:54:18;3.88;;;2.95;;
49464;SDS011;35358;49.342;8.802;2022-11-20T08:56:46;4.05;;;2.95;;
49464;SDS011;35358;49.342;8.802;2022-11-20T08:59:12;4.47;;;3.15;;
49464;SDS011;35358;49.342;8.802;2022-11-20T09:01:40;4.45;;;3.20;;
49464;SDS011;35358;49.342;8.802;2022-11-20T09:04:06;5.88;;;3.20;;
49464;SDS011;35358;49.342;8.802;2022-11-20T09:06:32;5.53;;;3.17;;
49464;SDS011;35358;49.342;8.802;2022-11-20T09:08:57;6.72;;;3.58;;
49464;SDS011;35358;49.342;8.802;2022-11-20T09:11:23;5.05;;;3.15;;
49464;SDS011;35358;49.342;8.802;2022-11-20T09:13:48;4.05;;;2.80;;
49464;SDS011;35358;49.342;8.802;2022-11-20T09:16:17;6.57;;;3.40;;
49464;SDS011;35358;49.342;8.802;2022-11-20T09:18:42;3.72;;;2.97;;
49464;SDS011;35358;49.342;8.802;2022-11-20T09:21:11;4.72;;;3.40;;
49464;SDS011;35358;49.342;8.802;2022-11-20T09:23:38;5.20;;;3.88;;
49464;SDS011;35358;49.342;8.802;2022-11-20T09:26:05;7.20;;;4.13;;
49464;SDS011;35358;49.342;8.802;2022-11-20T09:28:32;4.28;;;3.70;;
49464;SDS011;35358;49.342;8.802;2022-11-20T09:30:58;5.93;;;3.90;;
49464;SDS011;35358;49.342;8.802;2022-11-20T09:33:24;5.50;;;3.58;;
49464;SDS011;35358;49.342;8.802;2022-11-20T09:35:52;8.18;;;3.33;;
49464;SDS011;35358;49.342;8.802;2022-11-20T09:38:20;4.53;;;3.33;;
49464;SDS011;35358;49.342;8.802;2022-11-20T09:41:05;3.80;;;3.00;;
49464;SDS011;35358;49.342;8.802;2022-11-20T09:49:05;4.75;;;3.78;;
49464;SDS011;35358;49.342;8.802;2022-11-20T09:51:42;5.75;;;3.50;;
49464;SDS011;35358;49.342;8.802;2022-11-20T09:54:17;5.93;;;3.42;;
49464;SDS011;35358;49.342;8.802;2022-11-20T09:57:01;5.57;;;3.33;;
49464;SDS011;35358;49.342;8.802;2022-11-20T09:59:40;5.28;;;3.15;;
49464;SDS011;35358;49.342;8.802;2022-11-20T10:05:05;5.95;;;3.33;;
49464;SDS011;35358;49.342;8.802;2022-11-20T10:07:44;5.70;;;3.53;;
49464;SDS011;35358;49.342;8.802;2022-11-20T10:10:36;5.20;;;3.83;;
49464;SDS011;35358;49.342;8.802;2022-11-20T10:16:13;5.97;;;3.80;;
49464;SDS011;35358;49.342;8.802;2022-11-20T10:18:58;6.22;;;4.75;;
49464;SDS011;35358;49.342;8.802;2022-11-20T10:21:46;6.00;;;4.75;;
49464;SDS011;35358;49.342;8.802;2022-11-20T10:29:18;7.60;;;4.80;;
49464;SDS011;35358;49.342;8.802;2022-11-20T10:31:48;6.20;;;4.80;;
49464;SDS011;35358;49.342;8.802;2022-11-20T10:34:21;6.03;;;4.60;;
49464;SDS011;35358;49.342;8.802;2022-11-20T10:37:02;4.63;;;4.15;;
49464;SDS011;35358;49.342;8.802;2022-11-20T10:43:11;9.00;;;4.55;;
49464;SDS011;35358;49.342;8.802;2022-11-20T10:47:53;7.63;;;4.78;;
49464;SDS011;35358;49.342;8.802;2022-11-20T10:53:03;4.40;;;3.38;;
49464;SDS011;35358;49.342;8.802;2022-11-20T10:55:50;5.53;;;4.00;;
49464;SDS011;35358;49.342;8.802;2022-11-20T10:58:30;4.00;;;3.05;;
49464;SDS011;35358;49.342;8.802;2022-11-20T11:01:18;4.10;;;3.00;;
49464;SDS011;35358;49.342;8.802;2022-11-20T11:03:48;4.82;;;3.13;;
49464;SDS011;35358;49.342;8.802;2022-11-20T11:08:58;4.05;;;2.97;;
49464;SDS011;35358;49.342;8.802;2022-11-20T11:11:31;3.13;;;2.55;;
49464;SDS011;35358;49.342;8.802;2022-11-20T11:14:08;4.00;;;2.25;;
49464;SDS011;35358;49.342;8.802;2022-11-20T11:16:59;4.65;;;2.72;;
49464;SDS011;35358;49.342;8.802;2022-11-20T11:19:26;4.10;;;2.50;;
49464;SDS011;35358;49.342;8.802;2022-11-20T11:21:55;4.63;;;2.95;;
49464;SDS011;35358;49.342;8.802;2022-11-20T11:26:52;5.40;;;2.85;;
49464;SDS011;35358;49.342;8.802;2022-11-20T11:29:22;5.07;;;3.55;;
49464;SDS011;35358;49.342;8.802;2022-11-20T11:31:48;5.03;;;3.33;;
49464;SDS011;35358;49.342;8.802;2022-11-20T11:34:15;4.70;;;3.60;;
49464;SDS011;35358;49.342;8.802;2022-11-20T11:36:47;5.35;;;3.65;;
49464;SDS011;35358;49.342;8.802;2022-11-20T11:39:21;3.88;;;2.53;;
49464;SDS011;35358;49.342;8.802;2022-11-20T11:41:51;6.15;;;3.50;;
49464;SDS011;35358;49.342;8.802;2022-11-20T11:47:32;4.85;;;2.95;;
49464;SDS011;35358;49.342;8.802;2022-11-20T11:55:17;6.05;;;3.38;;
49464;SDS011;35358;49.342;8.802;2022-11-20T12:00:41;5.25;;;3.00;;
49464;SDS011;35358;49.342;8.802;2022-11-20T12:03:31;5.47;;;2.92;;
49464;SDS011;35358;49.342;8.802;2022-11-20T12:06:13;3.25;;;2.60;;
49464;SDS011;35358;49.342;8.802;2022-11-20T12:11:47;5.90;;;3.33;;
49464;SDS011;35358;49.342;8.802;2022-11-20T12:14:27;5.18;;;2.92;;
49464;SDS011;35358;49.342;8.802;2022-11-20T12:17:01;5.45;;;2.65;;
49464;SDS011;35358;49.342;8.802;2022-11-20T12:19:26;3.78;;;2.40;;
49464;SDS011;35358;49.342;8.802;2022-11-20T12:30:28;9.68;;;2.00;;
49464;SDS011;35358;49.342;8.802;2022-11-20T12:41:28;9.23;;;1.50;;
49464;SDS011;35358;49.342;8.802;2022-11-20T12:52:48;5.03;;;1.27;;
49464;SDS011;35358;49.342;8.802;2022-11-20T12:58:19;4.47;;;1.33;;
49464;SDS011;35358;49.342;8.802;2022-11-20T13:01:04;4.40;;;1.30;;
49464;SDS011;35358;49.342;8.802;2022-11-20T13:03:36;4.25;;;1.20;;
49464;SDS011;35358;49.342;8.802;2022-11-20T13:06:18;4.80;;;1.42;;
49464;SDS011;35358;49.342;8.802;2022-11-20T13:08:48;3.83;;;1.35;;
49464;SDS011;35358;49.342;8.802;2022-11-20T13:19:03;2.80;;;1.05;;
49464;SDS011;35358;49.342;8.802;2022-11-20T13:21:40;5.15;;;1.20;;
49464;SDS011;35358;49.342;8.802;2022-11-20T13:29:33;4.80;;;1.23;;
49464;SDS011;35358;49.342;8.802;2022-11-20T13:32:03;4.10;;;1.33;;
49464;SDS011;35358;49.342;8.802;2022-11-20T13:34:39;2.80;;;1.25;;
49464;SDS011;35358;49.342;8.802;2022-11-20T13:37:24;3.40;;;1.40;;
49464;SDS011;35358;49.342;8.802;2022-11-20T13:40:04;2.65;;;1.15;;
49464;SDS011;35358;49.342;8.802;2022-11-20T13:42:33;1.90;;;0.93;;
49464;SDS011;35358;49.342;8.802;2022-11-20T13:45:09;3.10;;;0.63;;
49464;SDS011;35358;49.342;8.802;2022-11-20T13:47:49;1.98;;;0.80;;
49464;SDS011;35358;49.342;8.802;2022-11-20T13:50:18;3.50;;;0.95;;
49464;SDS011;35358;49.342;8.802;2022-11-20T13:58:12;1.98;;;0.77;;
49464;SDS011;35358;49.342;8.802;2022-11-20T14:00:50;2.50;;;0.68;;
49464;SDS011;35358;49.342;8.802;2022-11-20T14:03:21;3.25;;;0.70;;
49464;SDS011;35358;49.342;8.802;2022-11-20T14:05:54;2.63;;;0.70;;
49464;SDS011;35358;49.342;8.802;2022-11-20T14:08:27;1.55;;;0.70;;
49464;SDS011;35358;49.342;8.802;2022-11-20T14:11:18;3.00;;;0.80;;
49464;SDS011;35358;49.342;8.802;2022-11-20T14:16:29;3.78;;;0.60;;
49464;SDS011;35358;49.342;8.802;2022-11-20T14:18:57;3.25;;;0.80;;
49464;SDS011;35358;49.342;8.802;2022-11-20T14:21:41;5.70;;;0.65;;
49464;SDS011;35358;49.342;8.802;2022-11-20T14:24:09;4.07;;;1.65;;
49464;SDS011;35358;49.342;8.802;2022-11-20T14:26:37;2.25;;;0.65;;
49464;SDS011;35358;49.342;8.802;2022-11-20T14:29:13;2.78;;;0.70;;
49464;SDS011;35358;49.342;8.802;2022-11-20T14:31:43;3.50;;;0.52;;
49464;SDS011;35358;49.342;8.802;2022-11-20T14:34:17;1.30;;;0.70;;
49464;SDS011;35358;49.342;8.802;2022-11-20T14:36:55;6.15;;;1.48;;
49464;SDS011;35358;49.342;8.802;2022-11-20T14:39:34;3.07;;;0.60;;
49464;SDS011;35358;49.342;8.802;2022-11-20T14:42:10;2.30;;;1.13;;
49464;SDS011;35358;49.342;8.802;2022-11-20T14:44:43;3.50;;;1.10;;
49464;SDS011;35358;49.342;8.802;2022-11-20T14:47:10;3.65;;;1.52;;
49464;SDS011;35358;49.342;8.802;2022-11-20T14:49:37;5.55;;;1.52;;
49464;SDS011;35358;49.342;8.802;2022-11-20T14:52:14;3.08;;;1.40;;
49464;SDS011;35358;49.342;8.802;2022-11-20T14:54:51;2.63;;;1.27;;
49464;SDS011;35358;49.342;8.802;2022-11-20T14:57:22;5.72;;;1.75;;
49464;SDS011;35358;49.342;8.802;2022-11-20T15:00:18;4.43;;;1.50;;
49464;SDS011;35358;49.342;8.802;2022-11-20T15:02:48;4.10;;;1.20;;
49464;SDS011;35358;49.342;8.802;2022-11-20T15:05:16;7.32;;;1.58;;
49464;SDS011;35358;49.342;8.802;2022-11-20T15:07:47;2.70;;;1.25;;
49464;SDS011;35358;49.342;8.802;2022-11-20T15:12:51;2.47;;;1.45;;
49464;SDS011;35358;49.342;8.802;2022-11-20T15:15:24;6.30;;;1.40;;
49464;SDS011;35358;49.342;8.802;2022-11-20T15:18:15;3.20;;;1.48;;
49464;SDS011;35358;49.342;8.802;2022-11-20T15:20:43;4.90;;;1.13;;
49464;SDS011;35358;49.342;8.802;2022-11-20T15:23:14;2.78;;;0.98;;
49464;SDS011;35358;49.342;8.802;2022-11-20T15:25:44;2.92;;;1.00;;
49464;SDS011;35358;49.342;8.802;2022-11-20T15:28:15;8.75;;;2.92;;
49464;SDS011;35358;49.342;8.802;2022-11-20T15:30:49;6.47;;;2.83;;
49464;SDS011;35358;49.342;8.802;2022-11-20T15:33:15;10.32;;;2.10;;
49464;SDS011;35358;49.342;8.802;2022-11-20T15:35:42;6.72;;;2.95;;
49464;SDS011;35358;49.342;8.802;2022-11-20T15:38:08;6.00;;;3.08;;
49464;SDS011;35358;49.342;8.802;2022-11-20T15:40:36;4.95;;;2.92;;
49464;SDS011;35358;49.342;8.802;2022-11-20T15:43:02;8.57;;;3.78;;
49464;SDS011;35358;49.342;8.802;2022-11-20T15:45:50;7.13;;;3.35;;
49464;SDS011;35358;49.342;8.802;2022-11-20T15:48:20;5.07;;;1.92;;
49464;SDS011;35358;49.342;8.802;2022-11-20T15:50:56;4.75;;;2.42;;
49464;SDS011;35358;49.342;8.802;2022-11-20T15:53:28;5.60;;;2.30;;
49464;SDS011;35358;49.342;8.802;2022-11-20T15:55:54;5.88;;;4.00;;
49464;SDS011;35358;49.342;8.802;2022-11-20T15:58:20;7.93;;;3.90;;
49464;SDS011;35358;49.342;8.802;2022-11-20T16:00:47;6.28;;;2.30;;
49464;SDS011;35358;49.342;8.802;2022-11-20T16:03:14;9.20;;;8.15;;
49464;SDS011;35358;49.342;8.802;2022-11-20T16:05:42;5.95;;;4.10;;
49464;SDS011;35358;49.342;8.802;2022-11-20T16:08:11;8.65;;;2.90;;
49464;SDS011;35358;49.342;8.802;2022-11-20T16:10:37;6.63;;;3.10;;
49464;SDS011;35358;49.342;8.802;2022-11-20T16:13:03;7.95;;;4.68;;
49464;SDS011;35358;49.342;8.802;2022-11-20T16:15:51;6.75;;;4.30;;
49464;SDS011;35358;49.342;8.802;2022-11-20T16:18:21;6.40;;;2.97;;
49464;SDS011;35358;49.342;8.802;2022-11-20T16:20:51;6.68;;;3.45;;
49464;SDS011;35358;49.342;8.802;2022-11-20T16:23:18;7.30;;;3.45;;
49464;SDS011;35358;49.342;8.802;2022-11-20T16:25:49;7.82;;;2.28;;
49464;SDS011;35358;49.342;8.802;2022-11-20T16:28:20;4.28;;;2.28;;
49464;SDS011;35358;49.342;8.802;2022-11-20T16:30:45;6.18;;;3.22;;
49464;SDS011;35358;49.342;8.802;2022-11-20T16:33:14;4.80;;;2.20;;
49464;SDS011;35358;49.342;8.802;2022-11-20T16:35:43;6.25;;;2.70;;
49464;SDS011;35358;49.342;8.802;2022-11-20T16:38:12;4.70;;;1.60;;